Millers, Virginia
Current Conditions -  °F | °C
As of 2:54 PM on Saturday 25 Oct 2014 (Local Time) from KRIC Reporting Station
Clear Clear  
Wind Chill: 71°   Ceiling: Unl
Heat Index: 71°   Visibility: 10mi
Dew Point: 36°   Wind: 9mph
Humidity: 28%   Direction: 230°SW
Pressure: 29.88"   Gusts: NA
Location:  37.4458°N, 77.3237°W
Report Text: KRIC 251854Z 23008KT 10SM CLR 22/02 A2988 RMK AO2 SLP121 T02170022
Loading
Personal Weather Stations






























Interactive Weather Map
Tropical Storm Tracking
New forecast layout! Learn more

10-Day Weather Forecast

Advertisements
Track Severe Weather on mobile